Time;durP1;ratioP1;P1;durP2;ratioP2;P2;SDS_P1;SDS_P2;PMS_P1;PMS_P2;Temp;Humidity;BMP_temperature;BMP_pressure;BME280_temperature;BME280_humidity;BME280_pressure;Samples;Min_cycle;Max_cycle;Signal;HPM_P1;HPM_P2
2023/05/02 00:02:40;;;;;;;65.68;37.30;;;;;;;8.80;100.00;101751.09;10510274;28;20123;-77
2023/05/02 00:07:40;;;;;;;63.25;39.50;;;;;;;8.90;100.00;101761.34;10517969;28;20036;-77
2023/05/02 00:12:41;;;;;;;57.45;34.65;;;;;;;9.02;100.00;101763.88;10520708;28;20075;-77
2023/05/02 00:17:42;;;;;;;53.70;33.65;;;;;;;9.13;100.00;101754.19;10518793;28;20130;-77
2023/05/02 00:22:42;;;;;;;59.83;32.88;;;;;;;9.20;100.00;101745.03;10515818;28;20032;-77
2023/05/02 00:27:45;;;;;;;53.22;32.92;;;;;;;9.23;100.00;101750.47;10485816;28;20461;-77
2023/05/02 00:32:45;;;;;;;54.22;30.80;;;;;;;9.25;100.00;101755.00;10519874;28;20059;-77
2023/05/02 00:37:46;;;;;;;54.55;32.08;;;;;;;9.28;100.00;101758.63;10521265;28;20040;-77
2023/05/02 00:42:46;;;;;;;51.30;30.42;;;;;;;9.30;100.00;101759.66;10521776;28;20558;-78
2023/05/02 00:47:48;;;;;;;43.92;27.02;;;;;;;9.34;100.00;101761.66;10503766;28;20064;-77
2023/05/02 00:52:48;;;;;;;44.67;24.57;;;;;;;9.33;100.00;101768.56;10493120;28;20036;-78
2023/05/02 00:57:49;;;;;;;45.72;29.30;;;;;;;9.33;100.00;101768.56;10511370;28;20327;-77
2023/05/02 01:03:04;;;;;;;37.65;22.80;;;;;;;9.35;100.00;101772.19;10530076;28;20119;-77
2023/05/02 01:08:13;;;;;;;40.92;20.55;;;;;;;9.41;100.00;101769.09;10499984;28;20044;-78
2023/05/02 01:13:21;;;;;;;37.22;22.25;;;;;;;9.40;100.00;101776.03;10526348;28;20128;-77
2023/05/02 01:18:23;;;;;;;38.03;19.92;;;;;;;9.40;100.00;101770.78;10522196;28;20035;-78
2023/05/02 01:23:47;;;;;;;34.80;21.48;;;;;;;9.42;100.00;101775.22;10524474;28;20036;-78
2023/05/02 01:29:00;;;;;;;39.95;21.45;;;;;;;9.43;100.00;101766.56;10526154;28;20382;-78
2023/05/02 01:34:01;;;;;;;41.13;21.08;;;;;;;9.46;100.00;101772.94;10528780;28;20039;-78
2023/05/02 01:39:02;;;;;;;37.28;20.20;;;;;;;9.46;100.00;101774.63;10510191;28;20036;-78
2023/05/02 01:44:02;;;;;;;33.13;19.10;;;;;;;9.49;100.00;101772.22;10509299;28;20040;-77
2023/05/02 01:49:05;;;;;;;36.38;21.55;;;;;;;9.51;100.00;101778.44;10499316;28;20055;-78
2023/05/02 01:54:06;;;;;;;;;;;;;;;9.53;100.00;101787.28;10511724;28;20035;-78
2023/05/02 01:59:09;;;;;;;36.78;20.08;;;;;;;9.57;100.00;101791.91;10527425;28;19920;-78
2023/05/02 02:04:10;;;;;;;31.70;18.60;;;;;;;9.66;100.00;101808.22;10510697;28;20458;-78
2023/05/02 02:09:10;;;;;;;30.25;17.08;;;;;;;9.70;100.00;101814.56;10523918;28;20040;-78
2023/05/02 02:14:18;;;;;;;31.25;16.83;;;;;;;9.62;100.00;101810.53;10510327;28;20085;-78
2023/05/02 02:19:18;;;;;;;26.13;14.93;;;;;;;9.58;100.00;101821.59;10503509;28;20068;-78
2023/05/02 02:24:20;;;;;;;25.40;12.75;;;;;;;9.44;100.00;101818.03;10508390;28;20066;-78
2023/05/02 02:29:20;;;;;;;19.57;11.27;;;;;;;9.32;100.00;101824.25;10508829;28;20036;-78
2023/05/02 02:34:21;;;;;;;20.08;11.07;;;;;;;9.31;100.00;101817.19;10525856;28;20153;-77
2023/05/02 02:39:29;;;;;;;22.25;11.95;;;;;;;9.23;100.00;101829.75;10513055;28;20440;-79
2023/05/02 02:44:30;;;;;;;18.25;10.02;;;;;;;9.28;100.00;101832.66;10524744;28;20069;-79
2023/05/02 02:49:33;;;;;;;20.08;10.35;;;;;;;9.18;100.00;101831.16;10528369;28;20057;-79
2023/05/02 02:54:51;;;;;;;15.98;9.10;;;;;;;9.04;100.00;101837.13;10527563;28;20092;-78
2023/05/02 03:00:08;;;;;;;15.25;9.95;;;;;;;9.06;100.00;101840.75;10510390;28;20048;-79
2023/05/02 03:05:08;;;;;;;20.30;9.43;;;;;;;9.00;100.00;101840.31;10509105;28;20403;-79
2023/05/02 03:10:10;;;;;;;18.48;9.63;;;;;;;8.98;100.00;101850.66;10507738;28;20044;-79
2023/05/02 03:15:30;;;;;;;18.67;10.43;;;;;;;8.93;100.00;101855.56;10521781;28;20040;-79
2023/05/02 03:20:30;;;;;;;16.98;10.63;;;;;;;8.95;100.00;101858.25;10522858;28;20040;-79
2023/05/02 03:25:31;;;;;;;21.77;12.15;;;;;;;8.93;100.00;101866.00;10522398;28;20043;-79
2023/05/02 03:30:31;;;;;;;18.20;10.73;;;;;;;8.92;100.00;101864.19;10482722;28;20063;-79
2023/05/02 03:35:32;;;;;;;23.40;11.93;;;;;;;8.91;100.00;101871.91;10522317;28;20069;-79
2023/05/02 03:40:32;;;;;;;18.45;11.20;;;;;;;8.91;100.00;101872.81;10520960;28;20052;-79
2023/05/02 03:45:33;;;;;;;20.85;13.52;;;;;;;8.91;100.00;101882.34;10524196;28;20186;-79
2023/05/02 03:50:34;;;;;;;24.70;13.65;;;;;;;8.89;100.00;101887.47;10505385;28;20128;-79
2023/05/02 03:55:41;;;;;;;27.13;16.08;;;;;;;8.89;100.00;101897.00;10504037;28;20142;-80
2023/05/02 04:00:41;;;;;;;23.67;13.05;;;;;;;8.91;100.00;101903.22;10521537;28;20177;-80
2023/05/02 04:05:42;;;;;;;23.92;14.07;;;;;;;8.95;100.00;101905.25;10505160;28;20101;-79
2023/05/02 04:10:42;;;;;;;25.63;14.55;;;;;;;9.02;100.00;101914.44;10490585;28;20115;-79
2023/05/02 04:15:44;;;;;;;28.40;14.45;;;;;;;8.98;100.00;101917.66;10520860;28;20040;-79
2023/05/02 04:20:44;;;;;;;28.63;14.87;;;;;;;9.04;100.00;101920.69;10504658;28;20036;-80
2023/05/02 04:25:52;;;;;;;23.10;14.15;;;;;;;9.01;100.00;101921.38;10519068;28;20071;-79
2023/05/02 04:30:53;;;;;;;21.85;12.70;;;;;;;9.00;100.00;101935.22;10503655;28;20127;-80
2023/05/02 04:35:53;;;;;;;19.10;12.70;;;;;;;8.97;100.00;101932.38;10522142;28;20543;-78
2023/05/02 04:40:54;;;;;;;23.50;14.10;;;;;;;8.95;100.00;101937.50;10495714;28;20056;-77
2023/05/02 04:45:54;;;;;;;26.30;15.32;;;;;;;8.97;100.00;101945.44;10503048;28;20119;-77
2023/05/02 04:50:55;;;;;;;21.42;14.38;;;;;;;9.03;100.00;101958.94;10516463;28;20033;-77
2023/05/02 04:55:56;;;;;;;22.80;15.15;;;;;;;9.06;100.00;101956.53;10522177;28;20122;-78
2023/05/02 05:00:57;;;;;;;27.05;16.58;;;;;;;9.06;100.00;101973.94;10523419;28;20047;-77
2023/05/02 05:05:57;;;;;;;21.70;13.68;;;;;;;8.96;100.00;101981.09;10503615;28;20040;-77
2023/05/02 05:11:00;;;;;;;23.00;16.30;;;;;;;8.92;100.00;101985.97;10507752;28;20391;-78
2023/05/02 05:16:01;;;;;;;29.05;17.00;;;;;;;8.91;100.00;101992.00;10524041;28;20390;-78
2023/05/02 05:21:02;;;;;;;27.02;14.95;;;;;;;8.97;100.00;102000.28;10520533;28;20060;-77
2023/05/02 05:26:14;;;;;;;21.55;13.77;;;;;;;9.08;100.00;102015.00;10522353;28;20097;-77
2023/05/02 05:31:16;;;;;;;15.45;11.13;;;;;;;9.10;100.00;102017.75;10503889;28;20051;-78
2023/05/02 05:36:16;;;;;;;13.27;8.88;;;;;;;9.01;100.00;102031.03;10478460;28;20488;-77
2023/05/02 05:41:17;;;;;;;14.52;8.23;;;;;;;9.18;100.00;102032.28;10504188;28;20069;-77
2023/05/02 05:46:17;;;;;;;12.30;7.00;;;;;;;9.11;100.00;102041.34;10530811;28;20054;-78
2023/05/02 05:51:17;;;;;;;9.60;3.80;;;;;;;9.11;100.00;102036.13;10512696;28;20040;-78
2023/05/02 05:56:18;;;;;;;8.88;3.83;;;;;;;9.08;100.00;102041.13;10531401;28;20066;-77
2023/05/02 06:01:18;;;;;;;9.20;3.35;;;;;;;9.18;100.00;102055.78;10527439;28;20039;-79
2023/05/02 06:06:19;;;;;;;6.43;3.53;;;;;;;9.42;100.00;102065.25;10530791;28;20127;-80
2023/05/02 06:11:19;;;;;;;7.72;3.05;;;;;;;9.40;100.00;102065.16;10518684;28;20068;-81
2023/05/02 06:16:20;;;;;;;6.38;3.35;;;;;;;9.50;100.00;102077.16;10518321;28;20084;-80
2023/05/02 06:21:21;;;;;;;6.63;3.10;;;;;;;9.79;100.00;102079.25;10521092;28;20445;-80
2023/05/02 06:26:21;;;;;;;6.80;3.03;;;;;;;10.14;100.00;102070.31;10508311;28;20119;-80
2023/05/02 06:31:22;;;;;;;7.63;3.22;;;;;;;10.62;100.00;102083.16;10524431;28;20119;-81
2023/05/02 06:36:22;;;;;;;4.47;2.08;;;;;;;12.98;100.00;102088.88;10498831;28;20060;-80
2023/05/02 06:41:22;;;;;;;6.32;2.00;;;;;;;12.57;100.00;102094.44;10503840;28;20056;-80
2023/05/02 06:46:23;;;;;;;5.97;2.38;;;;;;;11.62;100.00;102107.88;10511347;28;20496;-80
2023/05/02 06:51:24;;;;;;;5.80;2.33;;;;;;;10.83;100.00;102106.31;10525307;28;20233;-81
2023/05/02 06:56:24;;;;;;;9.00;2.20;;;;;;;10.71;100.00;102117.81;10505111;28;20063;-81
2023/05/02 07:01:25;;;;;;;10.50;4.03;;;;;;;10.44;100.00;102122.06;10495218;28;20097;-78
2023/05/02 07:06:26;;;;;;;6.45;2.60;;;;;;;10.57;100.00;102126.44;10523585;28;20044;-79
2023/05/02 07:11:27;;;;;;;5.90;2.80;;;;;;;10.57;100.00;102129.94;10524745;28;20035;-79
2023/05/02 07:16:27;;;;;;;9.88;2.60;;;;;;;10.68;100.00;102140.22;10513228;28;20448;-80
2023/05/02 07:21:28;;;;;;;10.02;3.70;;;;;;;10.92;100.00;102148.84;10494712;28;20114;-78
2023/05/02 07:26:28;;;;;;;9.30;2.88;;;;;;;11.41;100.00;102161.63;10509195;28;20400;-78
2023/05/02 07:31:29;;;;;;;12.55;3.17;;;;;;;12.38;100.00;102170.28;10526810;28;20040;-79
2023/05/02 07:36:30;;;;;;;4.20;2.40;;;;;;;11.65;100.00;102177.13;10506854;28;20102;-79
2023/05/02 07:41:30;;;;;;;8.65;2.90;;;;;;;11.21;100.00;102180.38;10495417;28;20071;-79
2023/05/02 07:46:31;;;;;;;8.30;2.63;;;;;;;11.56;100.00;102176.53;10503991;28;20062;-79
2023/05/02 07:51:31;;;;;;;6.32;3.03;;;;;;;14.37;100.00;102178.06;10507225;28;21630;-79
2023/05/02 07:56:33;;;;;;;7.80;2.17;;;;;;;13.60;100.00;102182.69;10504306;28;20059;-79
2023/05/02 08:01:34;;;;;;;6.85;2.50;;;;;;;13.21;100.00;102182.19;10509783;28;20040;-77
2023/05/02 08:06:35;;;;;;;9.95;2.80;;;;;;;12.99;100.00;102193.16;10486438;28;20048;-78
2023/05/02 08:11:36;;;;;;;8.37;4.00;;;;;;;11.81;100.00;102200.03;10489753;28;20048;-76
2023/05/02 08:16:36;;;;;;;7.28;2.65;;;;;;;10.64;100.00;102214.13;10503222;28;20477;-79
2023/05/02 08:21:37;;;;;;;9.68;2.88;;;;;;;10.12;100.00;102227.97;10502955;28;20135;-77
2023/05/02 08:26:37;;;;;;;7.95;2.20;;;;;;;10.02;100.00;102225.50;10474939;28;20036;-78
2023/05/02 08:31:41;;;;;;;5.75;2.53;;;;;;;10.27;100.00;102236.00;10509239;28;20127;-76
2023/05/02 08:36:41;;;;;;;9.38;2.83;;;;;;;10.71;100.00;102239.94;10522539;28;20047;-76
2023/05/02 08:41:43;;;;;;;9.30;3.53;;;;;;;11.24;100.00;102236.56;10507084;28;20092;-76
2023/05/02 08:46:44;;;;;;;7.68;2.60;;;;;;;12.03;100.00;102246.03;10506345;28;20032;-77
2023/05/02 08:51:44;;;;;;;7.25;3.63;;;;;;;12.69;100.00;102251.88;10522053;28;20123;-77
2023/05/02 08:56:45;;;;;;;15.13;2.72;;;;;;;13.25;100.00;102249.00;10493748;28;20119;-79
2023/05/02 09:01:48;;;;;;;7.65;2.20;;;;;;;15.56;100.00;102258.81;10484348;28;20092;-79
2023/05/02 09:06:48;;;;;;;11.65;2.60;;;;;;;16.58;90.43;102265.34;10489261;28;20071;-80
2023/05/02 09:11:49;;;;;;;9.43;2.50;;;;;;;15.71;85.36;102261.28;10494489;28;20043;-79
2023/05/02 09:16:50;;;;;;;8.57;3.45;;;;;;;14.63;99.24;102273.38;10488790;28;20032;-78
2023/05/02 09:21:50;;;;;;;11.40;3.42;;;;;;;14.50;100.00;102274.47;10487652;28;20060;-79
2023/05/02 09:26:59;;;;;;;6.53;3.83;;;;;;;13.54;100.00;102284.00;10510382;28;20079;-79
2023/05/02 09:32:03;;;;;;;7.28;4.32;;;;;;;12.75;100.00;102296.91;10503905;28;20032;-77
2023/05/02 09:37:05;;;;;;;10.15;3.90;;;;;;;12.72;100.00;102303.66;10504883;28;20387;-78
2023/05/02 09:42:05;;;;;;;8.52;3.63;;;;;;;12.97;100.00;102298.22;10523864;28;20113;-77
2023/05/02 09:47:06;;;;;;;12.35;5.13;;;;;;;12.39;100.00;102304.28;10477690;28;20165;-77
2023/05/02 09:52:11;;;;;;;10.95;3.55;;;;;;;11.60;100.00;102325.41;10501378;28;20045;-77
2023/05/02 09:57:11;;;;;;;15.82;3.05;;;;;;;11.14;100.00;102341.56;10503716;28;20029;-77
2023/05/02 10:02:12;;;;;;;13.43;5.22;;;;;;;11.25;100.00;102344.91;10507316;28;20051;-75
2023/05/02 10:07:12;;;;;;;8.98;3.97;;;;;;;11.46;100.00;102345.47;10510246;28;20395;-78
2023/05/02 10:12:14;;;;;;;10.05;3.22;;;;;;;12.24;100.00;102340.06;10506975;28;20032;-79
2023/05/02 10:17:42;;;;;;;7.40;2.93;;;;;;;13.48;100.00;102337.19;10499220;28;20039;-78
2023/05/02 10:22:42;;;;;;;6.95;2.85;;;;;;;16.47;78.55;102330.94;10483694;28;20059;-77
2023/05/02 10:27:43;;;;;;;7.80;4.00;;;;;;;16.34;73.84;102331.19;10525616;28;20042;-75
2023/05/02 10:32:43;;;;;;;10.13;3.97;;;;;;;17.28;71.64;102338.09;10505644;28;20516;-77
2023/05/02 10:37:44;;;;;;;7.85;3.38;;;;;;;15.08;69.58;102338.13;10480231;28;20055;-76
2023/05/02 10:42:46;;;;;;;9.30;3.80;;;;;;;14.46;80.35;102347.97;10488399;28;20190;-75
2023/05/02 10:47:47;;;;;;;7.38;3.60;;;;;;;14.37;75.76;102348.38;10501797;28;20109;-76
2023/05/02 10:52:47;;;;;;;11.75;4.80;;;;;;;14.66;83.67;102341.16;10474478;28;20113;-77
2023/05/02 10:58:00;;;;;;;11.18;4.60;;;;;;;14.51;74.29;102338.59;10511569;28;20093;-76
2023/05/02 11:03:00;;;;;;;9.45;3.35;;;;;;;14.35;79.10;102334.22;10481239;28;20044;-76
2023/05/02 11:08:16;;;;;;;10.48;2.97;;;;;;;15.10;79.92;102329.50;10505990;28;20037;-79
2023/05/02 11:13:27;;;;;;;5.88;2.60;;;;;;;15.68;70.79;102320.09;10512613;28;20040;-78
2023/05/02 11:18:27;;;;;;;13.50;3.38;;;;;;;15.53;66.54;102330.78;10503991;28;20032;-78
2023/05/02 11:23:28;;;;;;;11.07;3.63;;;;;;;15.75;67.14;102333.59;10491323;28;20500;-78
2023/05/02 11:28:38;;;;;;;17.35;3.83;;;;;;;14.98;73.13;102340.28;10507781;28;20048;-77
2023/05/02 11:33:38;;;;;;;10.38;3.25;;;;;;;15.87;64.03;102342.16;10516785;28;20522;-76
2023/05/02 11:38:39;;;;;;;6.15;2.72;;;;;;;15.12;70.83;102350.66;10503402;28;20054;-77
2023/05/02 11:43:39;;;;;;;10.25;3.42;;;;;;;15.95;67.50;102356.66;10493729;28;20124;-77
2023/05/02 11:48:40;;;;;;;6.45;2.60;;;;;;;19.19;52.84;102350.94;10506625;28;20093;-77
2023/05/02 11:53:41;;;;;;;8.98;2.83;;;;;;;19.47;53.49;102351.00;10512931;28;20779;-77
2023/05/02 11:58:43;;;;;;;11.95;4.40;;;;;;;16.22;63.57;102357.91;10502032;28;20070;-76
2023/05/02 12:03:43;;;;;;;7.22;3.15;;;;;;;15.33;65.51;102355.25;10503385;28;20059;-76
2023/05/02 12:08:44;;;;;;;9.63;3.42;;;;;;;15.25;70.67;102375.97;10488762;28;20476;-77
2023/05/02 12:13:48;;;;;;;8.00;4.15;;;;;;;16.42;61.69;102370.34;10514339;28;20123;-77
2023/05/02 12:18:49;;;;;;;5.95;3.15;;;;;;;17.44;58.86;102365.22;10522962;28;20531;-75
2023/05/02 12:23:49;;;;;;;48.30;11.30;;;;;;;15.91;60.76;102372.25;10506412;28;20074;-75
2023/05/02 12:28:50;;;;;;;7.60;3.80;;;;;;;18.25;58.35;102374.78;10523820;28;20483;-75
2023/05/02 12:33:56;;;;;;;7.67;3.57;;;;;;;20.16;51.58;102375.44;10506792;28;20038;-77
2023/05/02 12:39:00;;;;;;;9.82;3.42;;;;;;;20.79;43.26;102377.38;10524681;28;20039;-77
2023/05/02 12:44:01;;;;;;;6.03;3.38;;;;;;;18.14;50.71;102392.88;10521575;28;20063;-76
2023/05/02 12:49:08;;;;;;;6.97;4.10;;;;;;;17.04;58.39;102398.78;10506109;28;20043;-77
2023/05/02 12:54:18;;;;;;;12.45;3.88;;;;;;;16.58;55.33;102393.13;10473293;28;20101;-75
2023/05/02 12:59:29;;;;;;;5.95;2.97;;;;;;;18.46;54.86;102380.03;10507047;28;20177;-77
2023/05/02 13:04:34;;;;;;;10.15;3.97;;;;;;;20.05;51.54;102396.34;10522699;28;20097;-81
2023/05/02 13:09:34;;;;;;;6.30;3.80;;;;;;;17.06;54.05;102401.47;10522321;28;20040;-81
2023/05/02 13:14:35;;;;;;;8.95;4.80;;;;;;;17.94;54.59;102407.94;10523464;28;20476;-76
2023/05/02 13:19:35;;;;;;;5.68;3.25;;;;;;;19.69;48.15;102399.53;10523796;28;20044;-77
2023/05/02 13:24:36;;;;;;;9.65;3.65;;;;;;;20.12;45.12;102386.81;10467714;28;20074;-79
2023/05/02 13:29:36;;;;;;;8.60;4.25;;;;;;;18.67;48.94;102394.97;10523742;28;20052;-81
2023/05/02 13:34:37;;;;;;;8.88;3.53;;;;;;;19.64;45.45;102402.03;10518842;28;20118;-79
2023/05/02 13:39:37;;;;;;;6.72;3.47;;;;;;;20.20;45.44;102391.50;10523700;28;20048;-77
2023/05/02 13:44:38;;;;;;;6.30;2.83;;;;;;;19.86;44.25;102394.81;10490563;28;20596;-81
2023/05/02 13:49:38;;;;;;;9.38;3.00;;;;;;;20.45;43.12;102397.59;10491335;28;20135;-78
2023/05/02 13:54:39;;;;;;;6.88;2.90;;;;;;;17.73;47.22;102403.56;10524244;28;20059;-79
2023/05/02 13:59:39;;;;;;;10.82;2.78;;;;;;;17.49;50.29;102400.72;10494085;28;20048;-78
2023/05/02 14:04:40;;;;;;;9.15;4.38;;;;;;;18.74;46.11;102404.97;10485273;28;20063;-78
2023/05/02 14:09:40;;;;;;;9.75;3.88;;;;;;;18.94;44.77;102404.81;10514329;28;20063;-78
2023/05/02 14:14:41;;;;;;;8.70;4.22;;;;;;;19.89;45.85;102395.81;10528649;28;20115;-78
2023/05/02 14:19:41;;;;;;;6.13;4.22;;;;;;;20.01;42.60;102395.34;10525288;28;20532;-80
2023/05/02 14:24:42;;;;;;;7.20;4.15;;;;;;;20.59;41.10;102392.72;10529284;28;20122;-78
2023/05/02 14:29:46;;;;;;;7.97;3.50;;;;;;;20.30;43.91;102381.16;10511769;28;20055;-81
2023/05/02 14:34:46;;;;;;;7.65;4.57;;;;;;;19.59;43.49;102377.97;10510326;28;20428;-79
2023/05/02 14:39:51;;;;;;;8.02;4.15;;;;;;;19.49;40.32;102390.03;10528347;28;20111;-78
2023/05/02 14:44:52;;;;;;;9.75;3.80;;;;;;;19.00;43.58;102388.25;10528835;28;20070;-78
2023/05/02 14:49:52;;;;;;;13.20;4.22;;;;;;;18.70;45.51;102392.41;10527967;28;20051;-79
2023/05/02 14:54:53;;;;;;;7.75;4.10;;;;;;;18.78;43.74;102382.13;10510643;28;20122;-77
2023/05/02 14:59:53;;;;;;;8.93;5.47;;;;;;;18.51;43.84;102380.22;10513163;28;20063;-78
2023/05/02 15:04:54;;;;;;;6.85;3.53;;;;;;;17.66;45.47;102382.94;10514825;28;20193;-79
2023/05/02 15:09:55;;;;;;;12.65;4.25;;;;;;;17.53;44.48;102377.97;10507216;28;20111;-76
2023/05/02 15:14:55;;;;;;;9.27;4.80;;;;;;;17.28;43.95;102382.19;10515993;28;20037;-77
2023/05/02 15:19:56;;;;;;;7.93;4.10;;;;;;;16.92;46.13;102388.50;10521067;28;20114;-78
2023/05/02 15:24:56;;;;;;;8.57;3.55;;;;;;;16.52;46.71;102394.56;10525326;28;20036;-78
2023/05/02 15:29:57;;;;;;;12.07;3.92;;;;;;;15.48;45.77;102389.44;10526026;28;20059;-78
2023/05/02 15:34:57;;;;;;;8.90;5.25;;;;;;;14.64;51.16;102395.50;10522524;28;20040;-79
2023/05/02 15:40:00;;;;;;;6.80;3.67;;;;;;;14.24;53.70;102388.91;10526209;28;20126;-78
2023/05/02 15:45:00;;;;;;;8.60;4.23;;;;;;;13.99;54.49;102398.00;10519592;28;20190;-77
2023/05/02 15:50:01;;;;;;;9.85;4.05;;;;;;;13.88;52.53;102399.13;10518400;28;20084;-76
2023/05/02 15:55:01;;;;;;;11.73;5.68;;;;;;;13.64;53.88;102403.03;10524495;28;20404;-79
2023/05/02 16:00:02;;;;;;;10.02;3.42;;;;;;;13.44;55.38;102408.81;10504649;28;20048;-77
2023/05/02 16:05:03;;;;;;;8.82;3.70;;;;;;;13.42;53.52;102399.94;10511567;28;20088;-77
2023/05/02 16:10:04;;;;;;;8.77;3.40;;;;;;;13.29;56.70;102401.78;10520792;28;20040;-76
2023/05/02 16:15:05;;;;;;;16.45;4.53;;;;;;;13.20;55.15;102409.09;10524366;28;20078;-76
2023/05/02 16:20:06;;;;;;;14.52;4.00;;;;;;;13.03;56.26;102405.41;10485582;28;20479;-75
2023/05/02 16:25:07;;;;;;;7.65;3.75;;;;;;;12.81;57.30;102408.44;10507634;28;20051;-75
2023/05/02 16:30:08;;;;;;;5.90;3.85;;;;;;;12.68;56.68;102409.34;10524033;28;20502;-77
2023/05/02 16:35:11;;;;;;;13.50;4.22;;;;;;;12.60;56.97;102404.53;10518543;28;20141;-76
2023/05/02 16:40:12;;;;;;;8.95;3.60;;;;;;;12.60;56.40;102416.75;10523548;28;20036;-77
2023/05/02 16:45:13;;;;;;;7.63;3.33;;;;;;;12.51;56.49;102408.28;10506028;28;20046;-77
2023/05/02 16:50:13;;;;;;;8.77;4.20;;;;;;;12.39;59.05;102418.91;10506523;28;20127;-75
2023/05/02 16:55:15;;;;;;;10.07;4.18;;;;;;;12.16;60.01;102419.22;10523171;28;20044;-75
2023/05/02 17:00:16;;;;;;;11.33;3.50;;;;;;;12.02;59.42;102417.41;10525487;28;20361;-75
2023/05/02 17:05:18;;;;;;;9.00;4.43;;;;;;;11.80;60.99;102423.78;10519357;28;20451;-75
2023/05/02 17:10:19;;;;;;;19.80;4.25;;;;;;;11.89;58.49;102426.13;10521618;28;20047;-75
2023/05/02 17:15:20;;;;;;;10.70;3.33;;;;;;;11.90;60.49;102431.47;10523810;28;20055;-76
2023/05/02 17:20:20;;;;;;;11.02;3.72;;;;;;;11.77;61.63;102430.53;10518732;28;20062;-76
2023/05/02 17:25:21;;;;;;;8.90;3.92;;;;;;;11.56;61.01;102433.50;10522583;28;20037;-75
2023/05/02 17:30:22;;;;;;;13.90;3.75;;;;;;;11.19;64.66;102425.72;10523187;28;20123;-76
2023/05/02 17:35:23;;;;;;;7.87;3.67;;;;;;;11.08;66.43;102432.84;10506296;28;20124;-76
2023/05/02 17:40:23;;;;;;;19.27;5.05;;;;;;;11.19;64.46;102423.09;10509946;28;20076;-75
2023/05/02 17:45:24;;;;;;;13.10;3.97;;;;;;;11.06;62.58;102432.72;10498932;28;20462;-76
2023/05/02 17:50:25;;;;;;;14.85;5.57;;;;;;;11.04;63.79;102436.03;10529798;28;20047;-76
2023/05/02 17:55:25;;;;;;;8.48;4.05;;;;;;;10.84;69.29;102441.66;10531947;28;20090;-76
2023/05/02 18:00:26;;;;;;;11.05;4.35;;;;;;;10.68;72.99;102438.72;10529327;28;20556;-76
2023/05/02 18:05:26;;;;;;;10.70;4.55;;;;;;;10.40;76.23;102447.19;10513049;28;20090;-76
2023/05/02 18:10:28;;;;;;;10.02;4.55;;;;;;;10.22;79.69;102457.19;10529896;28;20542;-76
2023/05/02 18:15:28;;;;;;;17.42;6.22;;;;;;;10.31;79.81;102456.94;10528657;28;20068;-78
2023/05/02 18:20:29;;;;;;;9.60;4.72;;;;;;;10.24;79.25;102458.22;10527754;28;21194;-75
2023/05/02 18:25:32;;;;;;;20.52;7.38;;;;;;;10.12;83.46;102464.34;10527932;28;20115;-75
2023/05/02 18:30:36;;;;;;;32.22;5.75;;;;;;;9.96;86.90;102456.13;10511844;28;20036;-76
2023/05/02 18:35:37;;;;;;;15.18;4.55;;;;;;;9.75;91.71;102463.25;10527579;28;20063;-75
2023/05/02 18:40:37;;;;;;;10.77;5.97;;;;;;;9.52;97.56;102468.53;10530035;28;20119;-76
2023/05/02 18:45:38;;;;;;;9.65;3.90;;;;;;;9.15;100.00;102465.66;10528311;28;20060;-75
2023/05/02 18:50:38;;;;;;;10.70;4.90;;;;;;;8.80;100.00;102474.19;10527448;28;20496;-75
2023/05/02 18:55:39;;;;;;;13.32;6.95;;;;;;;8.60;100.00;102475.19;10521673;28;20119;-75
2023/05/02 19:00:40;;;;;;;9.15;4.57;;;;;;;8.25;100.00;102488.81;10518368;28;20047;-75
2023/05/02 19:05:41;;;;;;;7.73;5.50;;;;;;;7.97;100.00;102507.34;10501178;28;20043;-76
2023/05/02 19:10:42;;;;;;;13.13;7.38;;;;;;;7.76;100.00;102502.13;10520989;28;20040;-75
2023/05/02 19:15:42;;;;;;;12.65;4.93;;;;;;;7.49;100.00;102514.63;10523872;28;20064;-76
2023/05/02 19:20:43;;;;;;;12.30;5.78;;;;;;;7.43;100.00;102520.22;10528084;28;20119;-76
2023/05/02 19:25:45;;;;;;;13.70;6.18;;;;;;;7.12;100.00;102524.44;10527936;28;20447;-76
2023/05/02 19:30:45;;;;;;;13.02;6.03;;;;;;;7.03;100.00;102529.75;10488564;28;20028;-76
2023/05/02 19:35:46;;;;;;;10.73;5.38;;;;;;;6.69;100.00;102529.34;10506979;28;20487;-75
2023/05/02 19:40:47;;;;;;;9.48;4.38;;;;;;;6.27;100.00;102541.16;10518628;28;20048;-75
2023/05/02 19:45:48;;;;;;;7.88;4.50;;;;;;;5.96;100.00;102543.50;10515160;28;20123;-76
2023/05/02 19:50:49;;;;;;;12.40;5.00;;;;;;;5.74;100.00;102541.47;10517923;28;20036;-75
2023/05/02 19:55:49;;;;;;;9.18;5.72;;;;;;;5.56;100.00;102549.34;10517362;28;20579;-75
2023/05/02 20:00:50;;;;;;;14.02;5.20;;;;;;;5.47;100.00;102542.38;10510173;28;20137;-76
2023/05/02 20:05:51;;;;;;;9.00;5.13;;;;;;;5.34;100.00;102543.81;10526726;28;20028;-75
2023/05/02 20:10:51;;;;;;;9.43;4.65;;;;;;;5.09;100.00;102558.69;10522494;28;20115;-75
2023/05/02 20:15:52;;;;;;;8.35;4.57;;;;;;;4.73;100.00;102581.19;10525474;28;20034;-75
2023/05/02 20:20:52;;;;;;;13.15;5.32;;;;;;;4.66;100.00;102574.47;10504201;28;20054;-76
2023/05/02 20:25:53;;;;;;;10.93;5.30;;;;;;;4.51;100.00;102578.13;10522408;28;20192;-76
2023/05/02 20:30:53;;;;;;;10.00;4.13;;;;;;;4.37;100.00;102575.09;10520317;28;20109;-75
2023/05/02 20:35:54;;;;;;;9.55;5.13;;;;;;;4.23;100.00;102576.31;10525426;28;20071;-75
2023/05/02 20:40:56;;;;;;;18.23;8.20;;;;;;;4.01;100.00;102585.25;10521416;28;20064;-75
2023/05/02 20:45:56;;;;;;;13.13;6.47;;;;;;;3.86;100.00;102582.94;10514611;28;20040;-75
2023/05/02 20:50:57;;;;;;;13.85;5.80;;;;;;;3.94;100.00;102595.00;10508018;28;20118;-75
2023/05/02 20:55:57;;;;;;;10.70;5.70;;;;;;;3.86;100.00;102592.38;10522113;28;20056;-75
2023/05/02 21:00:58;;;;;;;10.05;5.28;;;;;;;3.75;100.00;102594.78;10523258;28;20135;-75
2023/05/02 21:05:58;;;;;;;13.93;6.38;;;;;;;3.72;100.00;102596.16;10503938;28;20161;-74
2023/05/02 21:10:59;;;;;;;24.10;5.82;;;;;;;3.59;100.00;102606.88;10522109;28;20060;-76
2023/05/02 21:16:00;;;;;;;12.73;5.65;;;;;;;3.56;100.00;102611.75;10523981;28;20036;-75
2023/05/02 21:21:00;;;;;;;8.75;5.18;;;;;;;3.48;100.00;102610.97;10527715;28;20055;-75
2023/05/02 21:26:01;;;;;;;11.32;7.05;;;;;;;3.53;100.00;102617.53;10530385;28;20036;-75
2023/05/02 21:31:01;;;;;;;11.55;5.93;;;;;;;3.58;100.00;102615.41;10511958;28;20123;-75
2023/05/02 21:36:02;;;;;;;10.82;6.93;;;;;;;3.61;100.00;102616.66;10503618;28;20815;-75
2023/05/02 21:41:03;;;;;;;8.05;5.68;;;;;;;3.50;100.00;102612.03;10522111;28;20036;-76
2023/05/02 21:46:04;;;;;;;8.30;5.90;;;;;;;3.28;100.00;102612.38;10532528;28;20510;-77
2023/05/02 21:51:08;;;;;;;10.75;6.07;;;;;;;3.14;100.00;102612.59;10513014;28;20054;-74
2023/05/02 21:56:09;;;;;;;19.77;7.03;;;;;;;3.09;100.00;102627.63;10513860;28;20552;-75
2023/05/02 22:01:09;;;;;;;10.50;4.82;;;;;;;3.19;100.00;102627.84;10514213;28;20085;-75
2023/05/02 22:06:10;;;;;;;10.32;5.20;;;;;;;3.13;100.00;102626.28;10531572;28;20131;-75
2023/05/02 22:11:10;;;;;;;9.43;4.78;;;;;;;2.98;100.00;102630.72;10512651;28;20140;-75
2023/05/02 22:16:11;;;;;;;9.18;5.65;;;;;;;2.78;100.00;102626.94;10530048;28;20185;-75
2023/05/02 22:21:12;;;;;;;10.65;5.10;;;;;;;2.66;100.00;102628.19;10525839;28;20123;-75
2023/05/02 22:26:12;;;;;;;12.07;6.63;;;;;;;2.57;100.00;102626.44;10519247;28;20089;-75
2023/05/02 22:31:14;;;;;;;12.18;6.30;;;;;;;2.55;100.00;102624.47;10528927;28;20547;-75
2023/05/02 22:36:16;;;;;;;10.00;6.40;;;;;;;2.47;100.00;102627.13;10511241;28;20507;-75
2023/05/02 22:41:16;;;;;;;16.50;6.78;;;;;;;2.45;100.00;102617.38;10527495;28;20032;-75
2023/05/02 22:46:17;;;;;;;12.10;6.18;;;;;;;2.33;100.00;102617.88;10509388;28;20048;-75
2023/05/02 22:51:17;;;;;;;14.05;7.65;;;;;;;2.29;100.00;102625.13;10528108;28;20563;-75